sensor_id;sensor_type;location;lat;lon;timestamp;pressure;altitude;pressure_sealevel;temperature;humidity
40982;BME280;26708;50.304;19.028;2023-02-13T00:01:39;100324.47;;;5.33;65.67
40982;BME280;26708;50.304;19.028;2023-02-13T00:03:46;100156.16;;;4.31;65.74
40982;BME280;26708;50.304;19.028;2023-02-13T00:05:50;100327.19;;;5.36;65.78
40982;BME280;26708;50.304;19.028;2023-02-13T00:07:56;100171.63;;;4.47;65.74
40982;BME280;26708;50.304;19.028;2023-02-13T00:10:01;100323.72;;;5.35;65.67
40982;BME280;26708;50.304;19.028;2023-02-13T00:12:06;100289.00;;;5.14;65.69
40982;BME280;26708;50.304;19.028;2023-02-13T00:14:13;100331.84;;;5.43;65.60
40982;BME280;26708;50.304;19.028;2023-02-13T00:16:17;100325.81;;;5.42;65.50
40982;BME280;26708;50.304;19.028;2023-02-13T00:18:22;100339.72;;;5.44;65.42
40982;BME280;26708;50.304;19.028;2023-02-13T00:20:30;100272.50;;;5.14;65.45
40982;BME280;26708;50.304;19.028;2023-02-13T00:22:35;100332.81;;;5.45;65.44
40982;BME280;26708;50.304;19.028;2023-02-13T00:24:40;100234.41;;;4.94;65.51
40982;BME280;26708;50.304;19.028;2023-02-13T00:26:46;100116.31;;;4.29;65.39
40982;BME280;26708;50.304;19.028;2023-02-13T00:28:51;100338.16;;;5.48;65.51
40982;BME280;26708;50.304;19.028;2023-02-13T00:31:03;100326.66;;;5.43;65.42
40982;BME280;26708;50.304;19.028;2023-02-13T00:33:09;100343.28;;;5.46;65.40
40982;BME280;26708;50.304;19.028;2023-02-13T00:35:14;100325.63;;;5.39;65.71
40982;BME280;26708;50.304;19.028;2023-02-13T00:37:21;100331.94;;;5.44;65.55
40982;BME280;26708;50.304;19.028;2023-02-13T00:39:27;100257.59;;;4.91;65.61
40982;BME280;26708;50.304;19.028;2023-02-13T00:41:32;100346.63;;;5.44;65.70
40982;BME280;26708;50.304;19.028;2023-02-13T00:43:37;100276.47;;;5.06;65.54
40982;BME280;26708;50.304;19.028;2023-02-13T00:45:43;100193.13;;;4.63;65.63
40982;BME280;26708;50.304;19.028;2023-02-13T00:47:48;100257.66;;;5.10;65.46
40982;BME280;26708;50.304;19.028;2023-02-13T00:49:55;100321.47;;;5.43;65.47
40982;BME280;26708;50.304;19.028;2023-02-13T00:52:00;100241.16;;;4.90;65.68
40982;BME280;26708;50.304;19.028;2023-02-13T00:54:08;100198.16;;;4.78;65.55
40982;BME280;26708;50.304;19.028;2023-02-13T00:56:12;100309.19;;;5.39;65.66
40982;BME280;26708;50.304;19.028;2023-02-13T00:58:20;100209.69;;;4.84;65.60
40982;BME280;26708;50.304;19.028;2023-02-13T01:00:25;100319.16;;;5.49;65.74
40982;BME280;26708;50.304;19.028;2023-02-13T01:02:30;100196.63;;;4.64;65.57
40982;BME280;26708;50.304;19.028;2023-02-13T01:04:37;100224.16;;;4.79;65.49
40982;BME280;26708;50.304;19.028;2023-02-13T01:06:41;100319.91;;;5.46;65.71
40982;BME280;26708;50.304;19.028;2023-02-13T01:08:46;100176.06;;;4.49;65.87
40982;BME280;26708;50.304;19.028;2023-02-13T01:10:55;100135.03;;;4.41;65.84
40982;BME280;26708;50.304;19.028;2023-02-13T01:13:00;100313.56;;;5.40;65.87
40982;BME280;26708;50.304;19.028;2023-02-13T01:15:05;100194.03;;;4.64;65.97
40982;BME280;26708;50.304;19.028;2023-02-13T01:17:11;100209.69;;;4.84;66.09
40982;BME280;26708;50.304;19.028;2023-02-13T01:19:16;100159.00;;;4.54;66.11
40982;BME280;26708;50.304;19.028;2023-02-13T01:21:21;100303.19;;;5.40;66.24
40982;BME280;26708;50.304;19.028;2023-02-13T01:23:31;100305.69;;;5.38;66.34
40982;BME280;26708;50.304;19.028;2023-02-13T01:25:39;100303.84;;;5.36;66.37
40982;BME280;26708;50.304;19.028;2023-02-13T01:27:47;100187.50;;;4.72;66.52
40982;BME280;26708;50.304;19.028;2023-02-13T01:29:53;100301.25;;;5.36;66.52
40982;BME280;26708;50.304;19.028;2023-02-13T01:31:58;100105.69;;;4.23;66.58
40982;BME280;26708;50.304;19.028;2023-02-13T01:34:05;100193.63;;;4.74;66.47
40982;BME280;26708;50.304;19.028;2023-02-13T01:36:11;100300.28;;;5.34;66.53
40982;BME280;26708;50.304;19.028;2023-02-13T01:38:17;100294.19;;;5.33;66.54
40982;BME280;26708;50.304;19.028;2023-02-13T01:40:22;100293.41;;;5.34;66.57
40982;BME280;26708;50.304;19.028;2023-02-13T01:42:32;100137.84;;;4.45;66.48
40982;BME280;26708;50.304;19.028;2023-02-13T01:44:50;100287.31;;;5.34;66.68
40982;BME280;26708;50.304;19.028;2023-02-13T01:46:56;100220.00;;;5.00;66.53
40982;BME280;26708;50.304;19.028;2023-02-13T01:49:08;100278.56;;;5.32;66.67
40982;BME280;26708;50.304;19.028;2023-02-13T01:51:24;100272.16;;;5.24;66.63
40982;BME280;26708;50.304;19.028;2023-02-13T01:53:34;100281.78;;;5.26;66.76
40982;BME280;26708;50.304;19.028;2023-02-13T01:55:49;100179.44;;;4.66;66.68
40982;BME280;26708;50.304;19.028;2023-02-13T01:58:05;100280.88;;;5.26;66.75
40982;BME280;26708;50.304;19.028;2023-02-13T02:00:19;100282.56;;;5.25;66.79
40982;BME280;26708;50.304;19.028;2023-02-13T02:02:28;100179.38;;;4.64;66.93
40982;BME280;26708;50.304;19.028;2023-02-13T02:04:41;100140.09;;;4.38;66.94
40982;BME280;26708;50.304;19.028;2023-02-13T02:06:55;100181.91;;;4.63;67.11
40982;BME280;26708;50.304;19.028;2023-02-13T02:09:12;100276.59;;;5.26;67.08
40982;BME280;26708;50.304;19.028;2023-02-13T02:11:27;100273.00;;;5.24;67.25
40982;BME280;26708;50.304;19.028;2023-02-13T02:13:39;100266.06;;;5.23;67.45
40982;BME280;26708;50.304;19.028;2023-02-13T02:15:49;100141.88;;;4.39;67.38
40982;BME280;26708;50.304;19.028;2023-02-13T02:17:56;100271.16;;;5.22;67.47
40982;BME280;26708;50.304;19.028;2023-02-13T02:20:15;100243.50;;;5.03;67.45
40982;BME280;26708;50.304;19.028;2023-02-13T02:22:51;100142.53;;;4.35;67.53
40982;BME280;26708;50.304;19.028;2023-02-13T02:28:40;100165.22;;;4.58;67.67
40982;BME280;26708;50.304;19.028;2023-02-13T02:34:24;100256.00;;;5.12;67.88
40982;BME280;26708;50.304;19.028;2023-02-13T02:36:55;100261.47;;;5.18;67.89
40982;BME280;26708;50.304;19.028;2023-02-13T02:39:18;100200.75;;;4.78;67.86
40982;BME280;26708;50.304;19.028;2023-02-13T02:41:50;100245.63;;;5.12;67.96
40982;BME280;26708;50.304;19.028;2023-02-13T02:44:16;100251.50;;;5.08;68.22
40982;BME280;26708;50.304;19.028;2023-02-13T02:46:36;100235.16;;;4.91;68.17
40982;BME280;26708;50.304;19.028;2023-02-13T02:49:17;100122.25;;;4.26;68.39
40982;BME280;26708;50.304;19.028;2023-02-13T02:51:44;100115.88;;;4.20;68.22
40982;BME280;26708;50.304;19.028;2023-02-13T02:54:06;100248.91;;;5.08;68.47
40982;BME280;26708;50.304;19.028;2023-02-13T02:56:36;100273.53;;;5.17;68.39
40982;BME280;26708;50.304;19.028;2023-02-13T02:58:49;100250.53;;;5.06;68.71
40982;BME280;26708;50.304;19.028;2023-02-13T03:01:15;100251.50;;;5.08;68.80
40982;BME280;26708;50.304;19.028;2023-02-13T03:03:36;100173.09;;;4.59;68.69
40982;BME280;26708;50.304;19.028;2023-02-13T03:05:59;100273.50;;;5.16;68.75
40982;BME280;26708;50.304;19.028;2023-02-13T03:08:14;100277.78;;;5.15;68.79
40982;BME280;26708;50.304;19.028;2023-02-13T03:10:41;100186.13;;;4.61;68.71
40982;BME280;26708;50.304;19.028;2023-02-13T03:13:04;100260.09;;;5.07;68.73
40982;BME280;26708;50.304;19.028;2023-02-13T03:15:26;100271.66;;;5.13;68.87
40982;BME280;26708;50.304;19.028;2023-02-13T03:17:34;100280.25;;;5.12;68.84
40982;BME280;26708;50.304;19.028;2023-02-13T03:20:03;100241.22;;;4.92;68.87
40982;BME280;26708;50.304;19.028;2023-02-13T03:22:44;100179.00;;;4.57;69.00
40982;BME280;26708;50.304;19.028;2023-02-13T03:25:11;100262.97;;;5.13;69.16
40982;BME280;26708;50.304;19.028;2023-02-13T03:27:40;100136.09;;;4.27;69.02
40982;BME280;26708;50.304;19.028;2023-02-13T03:30:12;100259.34;;;5.09;69.11
40982;BME280;26708;50.304;19.028;2023-02-13T03:32:35;100219.34;;;4.87;68.96
40982;BME280;26708;50.304;19.028;2023-02-13T03:34:58;100234.19;;;4.89;68.85
40982;BME280;26708;50.304;19.028;2023-02-13T03:37:38;100271.84;;;5.18;68.89
40982;BME280;26708;50.304;19.028;2023-02-13T03:40:03;100211.56;;;4.87;68.97
40982;BME280;26708;50.304;19.028;2023-02-13T03:42:22;100156.81;;;4.44;69.06
40982;BME280;26708;50.304;19.028;2023-02-13T03:44:36;100129.75;;;4.20;69.13
40982;BME280;26708;50.304;19.028;2023-02-13T03:46:47;100261.19;;;5.12;69.31
40982;BME280;26708;50.304;19.028;2023-02-13T03:48:56;100107.75;;;4.12;69.01
40982;BME280;26708;50.304;19.028;2023-02-13T03:51:23;100119.88;;;4.31;69.35
40982;BME280;26708;50.304;19.028;2023-02-13T03:53:38;100071.88;;;4.02;69.47
40982;BME280;26708;50.304;19.028;2023-02-13T03:55:48;100270.91;;;5.16;69.49
40982;BME280;26708;50.304;19.028;2023-02-13T03:58:12;100136.38;;;4.33;69.43
40982;BME280;26708;50.304;19.028;2023-02-13T04:00:38;100269.88;;;5.12;69.55
40982;BME280;26708;50.304;19.028;2023-02-13T04:02:53;100224.31;;;4.82;69.65
40982;BME280;26708;50.304;19.028;2023-02-13T04:05:11;100118.78;;;4.26;69.52
40982;BME280;26708;50.304;19.028;2023-02-13T04:07:21;100116.41;;;4.30;69.44
40982;BME280;26708;50.304;19.028;2023-02-13T04:09:41;100187.69;;;4.57;69.47
40982;BME280;26708;50.304;19.028;2023-02-13T04:11:54;100202.09;;;4.70;69.61
40982;BME280;26708;50.304;19.028;2023-02-13T04:14:12;100270.09;;;5.17;69.58
40982;BME280;26708;50.304;19.028;2023-02-13T04:16:29;100263.13;;;5.16;69.52
40982;BME280;26708;50.304;19.028;2023-02-13T04:18:38;100257.78;;;5.13;69.55
40982;BME280;26708;50.304;19.028;2023-02-13T04:20:44;100263.13;;;5.16;69.66
40982;BME280;26708;50.304;19.028;2023-02-13T04:22:49;100146.66;;;4.49;69.52
40982;BME280;26708;50.304;19.028;2023-02-13T04:24:57;100268.31;;;5.16;69.54
40982;BME280;26708;50.304;19.028;2023-02-13T04:27:01;100251.53;;;5.09;69.53
40982;BME280;26708;50.304;19.028;2023-02-13T04:29:06;100262.38;;;5.18;69.36
40982;BME280;26708;50.304;19.028;2023-02-13T04:31:12;100267.63;;;5.20;69.30
40982;BME280;26708;50.304;19.028;2023-02-13T04:33:17;100268.44;;;5.19;69.29
40982;BME280;26708;50.304;19.028;2023-02-13T04:35:22;100261.59;;;5.21;69.11
40982;BME280;26708;50.304;19.028;2023-02-13T04:37:27;100261.59;;;5.21;69.25
40982;BME280;26708;50.304;19.028;2023-02-13T04:39:32;100264.28;;;5.22;69.07
40982;BME280;26708;50.304;19.028;2023-02-13T04:41:39;100179.59;;;4.69;69.12
40982;BME280;26708;50.304;19.028;2023-02-13T04:43:44;100173.75;;;4.55;69.15
40982;BME280;26708;50.304;19.028;2023-02-13T04:45:50;100117.81;;;4.24;69.03
40982;BME280;26708;50.304;19.028;2023-02-13T04:47:58;100080.97;;;4.12;69.08
40982;BME280;26708;50.304;19.028;2023-02-13T04:50:04;100161.97;;;4.62;69.17
40982;BME280;26708;50.304;19.028;2023-02-13T04:52:09;100268.56;;;5.22;69.16
40982;BME280;26708;50.304;19.028;2023-02-13T04:54:16;100072.84;;;4.04;69.16
40982;BME280;26708;50.304;19.028;2023-02-13T04:56:22;100273.75;;;5.22;69.43
40982;BME280;26708;50.304;19.028;2023-02-13T04:58:30;100266.78;;;5.21;69.33
40982;BME280;26708;50.304;19.028;2023-02-13T05:00:34;100273.75;;;5.22;69.36
40982;BME280;26708;50.304;19.028;2023-02-13T05:02:40;100083.56;;;4.12;69.30
40982;BME280;26708;50.304;19.028;2023-02-13T05:04:44;100131.13;;;4.31;69.25
40982;BME280;26708;50.304;19.028;2023-02-13T05:06:49;100273.91;;;5.25;69.27
40982;BME280;26708;50.304;19.028;2023-02-13T05:08:54;100256.63;;;5.25;69.13
40982;BME280;26708;50.304;19.028;2023-02-13T05:10:59;100260.13;;;5.26;69.08
40982;BME280;26708;50.304;19.028;2023-02-13T05:13:03;100149.25;;;4.68;69.13
40982;BME280;26708;50.304;19.028;2023-02-13T05:15:12;100114.19;;;4.38;68.97
40982;BME280;26708;50.304;19.028;2023-02-13T05:17:16;100249.88;;;5.29;69.01
40982;BME280;26708;50.304;19.028;2023-02-13T05:19:20;100206.06;;;4.98;69.07
40982;BME280;26708;50.304;19.028;2023-02-13T05:21:26;100255.97;;;5.29;69.06
40982;BME280;26708;50.304;19.028;2023-02-13T05:23:45;100215.91;;;5.05;68.93
40982;BME280;26708;50.304;19.028;2023-02-13T05:25:49;100145.06;;;4.70;68.85
40982;BME280;26708;50.304;19.028;2023-02-13T05:27:55;100245.50;;;5.28;68.83
40982;BME280;26708;50.304;19.028;2023-02-13T05:29:59;100258.63;;;5.31;69.05
40982;BME280;26708;50.304;19.028;2023-02-13T05:32:04;100265.50;;;5.30;68.88
40982;BME280;26708;50.304;19.028;2023-02-13T05:34:12;100268.94;;;5.29;68.96
40982;BME280;26708;50.304;19.028;2023-02-13T05:36:17;100238.78;;;5.14;68.96
40982;BME280;26708;50.304;19.028;2023-02-13T05:38:21;100269.81;;;5.30;68.88
40982;BME280;26708;50.304;19.028;2023-02-13T05:40:26;100202.59;;;4.98;68.82
40982;BME280;26708;50.304;19.028;2023-02-13T05:42:32;100170.47;;;4.77;68.80
40982;BME280;26708;50.304;19.028;2023-02-13T05:45:18;100255.06;;;5.29;68.63
40982;BME280;26708;50.304;19.028;2023-02-13T05:47:26;100264.03;;;5.35;68.66
40982;BME280;26708;50.304;19.028;2023-02-13T05:49:36;99988.25;;;3.69;68.54
40982;BME280;26708;50.304;19.028;2023-02-13T05:51:40;100264.91;;;5.36;68.55
40982;BME280;26708;50.304;19.028;2023-02-13T05:53:47;100260.63;;;5.36;68.49
40982;BME280;26708;50.304;19.028;2023-02-13T05:55:52;100253.69;;;5.37;68.53
40982;BME280;26708;50.304;19.028;2023-02-13T05:57:57;100157.13;;;4.69;68.38
40982;BME280;26708;50.304;19.028;2023-02-13T06:00:04;100172.53;;;4.84;68.30
40982;BME280;26708;50.304;19.028;2023-02-13T06:02:10;100261.47;;;5.37;68.53
40982;BME280;26708;50.304;19.028;2023-02-13T06:04:17;100134.94;;;4.57;68.35
40982;BME280;26708;50.304;19.028;2023-02-13T06:06:23;100120.19;;;4.56;68.36
40982;BME280;26708;50.304;19.028;2023-02-13T06:08:28;100268.53;;;5.39;68.40
40982;BME280;26708;50.304;19.028;2023-02-13T06:10:32;100091.06;;;4.42;68.18
40982;BME280;26708;50.304;19.028;2023-02-13T06:12:38;100170.91;;;4.68;68.15
40982;BME280;26708;50.304;19.028;2023-02-13T06:14:42;100093.56;;;4.41;67.93
40982;BME280;26708;50.304;19.028;2023-02-13T06:16:47;100092.47;;;4.36;68.07
40982;BME280;26708;50.304;19.028;2023-02-13T06:18:52;100270.63;;;5.29;68.07
40982;BME280;26708;50.304;19.028;2023-02-13T06:20:59;100270.28;;;5.21;68.17
40982;BME280;26708;50.304;19.028;2023-02-13T06:23:04;100285.63;;;5.34;68.16
40982;BME280;26708;50.304;19.028;2023-02-13T06:25:10;100286.38;;;5.32;68.16
40982;BME280;26708;50.304;19.028;2023-02-13T06:27:14;100163.38;;;4.55;68.22
40982;BME280;26708;50.304;19.028;2023-02-13T06:29:19;100288.88;;;5.30;68.08
40982;BME280;26708;50.304;19.028;2023-02-13T06:31:24;100105.19;;;4.12;68.13
40982;BME280;26708;50.304;19.028;2023-02-13T06:33:29;100110.28;;;4.11;68.31
40982;BME280;26708;50.304;19.028;2023-02-13T06:35:34;100153.53;;;4.48;68.24
40982;BME280;26708;50.304;19.028;2023-02-13T06:37:42;100266.91;;;5.05;68.23
40982;BME280;26708;50.304;19.028;2023-02-13T06:39:48;100174.84;;;4.60;68.17
40982;BME280;26708;50.304;19.028;2023-02-13T06:41:53;100200.69;;;4.59;68.21
40982;BME280;26708;50.304;19.028;2023-02-13T06:43:58;100189.38;;;4.57;68.22
40982;BME280;26708;50.304;19.028;2023-02-13T06:46:05;100255.28;;;4.97;68.28
40982;BME280;26708;50.304;19.028;2023-02-13T06:48:09;100281.06;;;5.11;68.46
40982;BME280;26708;50.304;19.028;2023-02-13T06:50:16;100287.22;;;5.13;68.36
40982;BME280;26708;50.304;19.028;2023-02-13T06:52:22;100128.84;;;4.20;68.28
40982;BME280;26708;50.304;19.028;2023-02-13T06:54:29;100284.53;;;5.12;68.33
40982;BME280;26708;50.304;19.028;2023-02-13T06:56:34;100295.75;;;5.11;68.47
40982;BME280;26708;50.304;19.028;2023-02-13T06:58:39;100238.75;;;4.77;68.54
40982;BME280;26708;50.304;19.028;2023-02-13T07:00:43;100172.16;;;4.40;68.79
40982;BME280;26708;50.304;19.028;2023-02-13T07:02:49;100173.78;;;4.38;69.18
40982;BME280;26708;50.304;19.028;2023-02-13T07:04:53;100137.28;;;4.33;68.68
40982;BME280;26708;50.304;19.028;2023-02-13T07:06:58;100301.72;;;5.27;68.61
40982;BME280;26708;50.304;19.028;2023-02-13T07:09:03;100133.19;;;4.38;68.43
40982;BME280;26708;50.304;19.028;2023-02-13T07:11:16;100264.91;;;5.17;68.61
40982;BME280;26708;50.304;19.028;2023-02-13T07:13:21;100277.53;;;5.28;68.54
40982;BME280;26708;50.304;19.028;2023-02-13T07:15:27;100171.34;;;4.60;68.31
40982;BME280;26708;50.304;19.028;2023-02-13T07:17:31;100205.53;;;4.88;68.05
40982;BME280;26708;50.304;19.028;2023-02-13T07:19:36;100295.81;;;5.49;68.27
40982;BME280;26708;50.304;19.028;2023-02-13T07:21:41;100289.88;;;5.51;68.00
40982;BME280;26708;50.304;19.028;2023-02-13T07:23:46;100288.34;;;5.56;67.77
40982;BME280;26708;50.304;19.028;2023-02-13T07:25:50;100093.69;;;4.44;67.57
40982;BME280;26708;50.304;19.028;2023-02-13T07:28:03;100235.94;;;5.27;67.69
40982;BME280;26708;50.304;19.028;2023-02-13T07:30:09;100287.66;;;5.60;67.74
40982;BME280;26708;50.304;19.028;2023-02-13T07:32:15;100300.75;;;5.62;67.59
40982;BME280;26708;50.304;19.028;2023-02-13T07:34:20;100189.03;;;5.03;67.62
40982;BME280;26708;50.304;19.028;2023-02-13T07:36:25;100295.19;;;5.73;67.62
40982;BME280;26708;50.304;19.028;2023-02-13T07:38:29;100211.47;;;5.22;67.63
40982;BME280;26708;50.304;19.028;2023-02-13T07:40:35;100284.47;;;5.85;67.59
40982;BME280;26708;50.304;19.028;2023-02-13T07:42:40;100194.41;;;5.27;67.17
40982;BME280;26708;50.304;19.028;2023-02-13T07:44:47;100193.25;;;5.39;67.26
40982;BME280;26708;50.304;19.028;2023-02-13T07:46:53;100169.59;;;5.33;66.92
40982;BME280;26708;50.304;19.028;2023-02-13T07:48:57;100209.84;;;5.62;67.17
40982;BME280;26708;50.304;19.028;2023-02-13T07:51:04;100157.84;;;5.41;67.04
40982;BME280;26708;50.304;19.028;2023-02-13T07:53:09;100145.09;;;5.46;66.88
40982;BME280;26708;50.304;19.028;2023-02-13T07:55:14;100265.13;;;6.18;66.48
40982;BME280;26708;50.304;19.028;2023-02-13T07:57:19;100125.47;;;5.33;66.19
40982;BME280;26708;50.304;19.028;2023-02-13T07:59:24;100265.97;;;6.18;65.94
40982;BME280;26708;50.304;19.028;2023-02-13T08:01:31;100144.47;;;5.51;65.98
40982;BME280;26708;50.304;19.028;2023-02-13T08:03:36;100269.56;;;6.20;66.06
40982;BME280;26708;50.304;19.028;2023-02-13T08:05:42;100280.53;;;6.34;66.01
40982;BME280;26708;50.304;19.028;2023-02-13T08:07:51;100281.41;;;6.34;65.77
40982;BME280;26708;50.304;19.028;2023-02-13T08:09:56;100278.00;;;6.35;66.07
40982;BME280;26708;50.304;19.028;2023-02-13T08:12:14;100283.50;;;6.43;66.14
40982;BME280;26708;50.304;19.028;2023-02-13T08:14:18;100264.28;;;6.39;65.98
40982;BME280;26708;50.304;19.028;2023-02-13T08:16:23;100082.56;;;5.41;65.96
40982;BME280;26708;50.304;19.028;2023-02-13T08:18:31;100276.97;;;6.52;65.73
40982;BME280;26708;50.304;19.028;2023-02-13T08:20:36;100243.22;;;6.33;65.65
40982;BME280;26708;50.304;19.028;2023-02-13T08:22:40;100276.78;;;6.48;65.69
40982;BME280;26708;50.304;19.028;2023-02-13T08:24:46;100281.28;;;6.52;65.93
40982;BME280;26708;50.304;19.028;2023-02-13T08:26:50;100167.97;;;5.95;65.94
40982;BME280;26708;50.304;19.028;2023-02-13T08:28:55;100279.19;;;6.64;65.99
40982;BME280;26708;50.304;19.028;2023-02-13T08:31:00;100091.63;;;5.51;65.88
40982;BME280;26708;50.304;19.028;2023-02-13T08:33:05;100151.25;;;5.89;66.15
40982;BME280;26708;50.304;19.028;2023-02-13T08:35:12;100177.19;;;6.08;66.07
40982;BME280;26708;50.304;19.028;2023-02-13T08:37:17;100294.56;;;6.78;66.03
40982;BME280;26708;50.304;19.028;2023-02-13T08:39:22;100166.16;;;6.13;65.88
40982;BME280;26708;50.304;19.028;2023-02-13T08:41:26;100279.13;;;6.83;66.10
40982;BME280;26708;50.304;19.028;2023-02-13T08:43:32;100279.31;;;6.87;65.95
40982;BME280;26708;50.304;19.028;2023-02-13T08:45:37;100276.88;;;6.92;65.99
40982;BME280;26708;50.304;19.028;2023-02-13T08:47:41;100284.00;;;6.96;65.67
40982;BME280;26708;50.304;19.028;2023-02-13T08:49:47;100087.06;;;5.86;65.79
40982;BME280;26708;50.304;19.028;2023-02-13T08:51:54;100136.91;;;6.19;65.63
40982;BME280;26708;50.304;19.028;2023-02-13T08:53:59;100250.66;;;6.86;65.59
40982;BME280;26708;50.304;19.028;2023-02-13T08:56:05;100290.69;;;7.11;65.64
40982;BME280;26708;50.304;19.028;2023-02-13T08:58:10;100191.34;;;6.57;65.28
40982;BME280;26708;50.304;19.028;2023-02-13T09:00:15;100287.22;;;7.11;65.43
40982;BME280;26708;50.304;19.028;2023-02-13T09:02:21;100224.69;;;6.67;65.36
40982;BME280;26708;50.304;19.028;2023-02-13T09:04:25;100273.94;;;7.05;65.68
40982;BME280;26708;50.304;19.028;2023-02-13T09:06:30;100278.56;;;7.12;65.54
40982;BME280;26708;50.304;19.028;2023-02-13T09:08:38;100173.53;;;6.45;65.56
40982;BME280;26708;50.304;19.028;2023-02-13T09:10:42;100290.81;;;7.14;65.50
40982;BME280;26708;50.304;19.028;2023-02-13T09:12:51;100255.44;;;6.97;65.65
40982;BME280;26708;50.304;19.028;2023-02-13T09:14:57;100179.28;;;6.59;65.66
40982;BME280;26708;50.304;19.028;2023-02-13T09:17:01;100282.34;;;7.20;65.59
40982;BME280;26708;50.304;19.028;2023-02-13T09:19:06;100159.69;;;6.46;65.53
40982;BME280;26708;50.304;19.028;2023-02-13T09:21:11;100283.25;;;7.20;65.40
40982;BME280;26708;50.304;19.028;2023-02-13T09:23:16;100289.31;;;7.21;65.38
40982;BME280;26708;50.304;19.028;2023-02-13T09:25:23;100296.31;;;7.22;65.72
40982;BME280;26708;50.304;19.028;2023-02-13T09:27:29;100116.59;;;6.09;65.70
40982;BME280;26708;50.304;19.028;2023-02-13T09:29:34;100295.44;;;7.21;65.78
40982;BME280;26708;50.304;19.028;2023-02-13T09:31:39;100300.56;;;7.20;66.09
40982;BME280;26708;50.304;19.028;2023-02-13T09:33:46;100185.19;;;6.55;66.14
40982;BME280;26708;50.304;19.028;2023-02-13T09:35:52;100171.78;;;6.46;66.05
40982;BME280;26708;50.304;19.028;2023-02-13T09:37:59;100299.84;;;7.24;65.65
40982;BME280;26708;50.304;19.028;2023-02-13T09:40:06;100281.22;;;7.13;65.87
40982;BME280;26708;50.304;19.028;2023-02-13T09:42:28;100177.44;;;6.56;66.21
40982;BME280;26708;50.304;19.028;2023-02-13T09:44:41;100266.13;;;7.05;66.31
40982;BME280;26708;50.304;19.028;2023-02-13T09:46:48;100283.28;;;7.22;66.21
40982;BME280;26708;50.304;19.028;2023-02-13T09:48:55;100256.63;;;7.05;66.06
40982;BME280;26708;50.304;19.028;2023-02-13T09:51:04;100186.81;;;6.53;66.23
40982;BME280;26708;50.304;19.028;2023-02-13T09:53:19;100088.34;;;5.96;66.78
40982;BME280;26708;50.304;19.028;2023-02-13T09:55:31;100266.91;;;7.02;67.00
40982;BME280;26708;50.304;19.028;2023-02-13T09:58:02;100127.81;;;6.30;67.13
40982;BME280;26708;50.304;19.028;2023-02-13T10:00:20;100262.84;;;7.09;66.90
40982;BME280;26708;50.304;19.028;2023-02-13T10:02:43;100260.81;;;7.02;66.91
40982;BME280;26708;50.304;19.028;2023-02-13T10:05:09;100128.97;;;6.36;67.06
40982;BME280;26708;50.304;19.028;2023-02-13T10:07:38;100257.81;;;7.13;67.39
40982;BME280;26708;50.304;19.028;2023-02-13T10:10:01;100232.81;;;6.96;67.12
40982;BME280;26708;50.304;19.028;2023-02-13T10:12:22;100113.31;;;6.35;67.11
40982;BME280;26708;50.304;19.028;2023-02-13T10:15:02;100169.09;;;6.65;66.96
40982;BME280;26708;50.304;19.028;2023-02-13T10:17:24;100167.63;;;6.71;66.65
40982;BME280;26708;50.304;19.028;2023-02-13T10:19:40;100116.97;;;6.40;66.67
40982;BME280;26708;50.304;19.028;2023-02-13T10:21:52;100264.81;;;7.38;66.58
40982;BME280;26708;50.304;19.028;2023-02-13T10:24:09;100257.59;;;7.31;66.72
40982;BME280;26708;50.304;19.028;2023-02-13T10:26:20;100214.00;;;7.03;66.73
40982;BME280;26708;50.304;19.028;2023-02-13T10:28:33;100255.66;;;7.25;66.81
40982;BME280;26708;50.304;19.028;2023-02-13T10:30:50;100131.09;;;6.46;66.74
40982;BME280;26708;50.304;19.028;2023-02-13T10:33:03;100250.44;;;7.25;66.80
40982;BME280;26708;50.304;19.028;2023-02-13T10:35:29;100253.19;;;7.28;66.72
40982;BME280;26708;50.304;19.028;2023-02-13T10:37:35;100115.59;;;6.49;66.80
40982;BME280;26708;50.304;19.028;2023-02-13T10:39:43;100189.81;;;7.06;66.71
40982;BME280;26708;50.304;19.028;2023-02-13T10:41:52;100229.06;;;7.34;66.36
40982;BME280;26708;50.304;19.028;2023-02-13T10:44:19;100169.81;;;7.05;66.46
40982;BME280;26708;50.304;19.028;2023-02-13T10:46:45;100043.53;;;6.23;66.37
40982;BME280;26708;50.304;19.028;2023-02-13T10:49:22;100050.13;;;6.37;66.37
40982;BME280;26708;50.304;19.028;2023-02-13T10:51:50;100080.16;;;6.51;66.58
40982;BME280;26708;50.304;19.028;2023-02-13T10:54:28;100226.50;;;7.35;66.58
40982;BME280;26708;50.304;19.028;2023-02-13T10:56:54;100130.03;;;6.85;66.80
40982;BME280;26708;50.304;19.028;2023-02-13T10:59:28;100147.06;;;6.99;66.89
40982;BME280;26708;50.304;19.028;2023-02-13T11:01:52;100209.19;;;7.36;66.62
40982;BME280;26708;50.304;19.028;2023-02-13T11:04:05;100220.75;;;7.44;66.43
40982;BME280;26708;50.304;19.028;2023-02-13T11:06:14;100104.69;;;6.80;66.53
40982;BME280;26708;50.304;19.028;2023-02-13T11:08:24;100173.09;;;7.23;66.61
40982;BME280;26708;50.304;19.028;2023-02-13T11:10:33;100214.72;;;7.45;66.81
40982;BME280;26708;50.304;19.028;2023-02-13T11:12:38;100211.34;;;7.47;66.93
40982;BME280;26708;50.304;19.028;2023-02-13T11:14:53;100205.22;;;7.47;66.94
40982;BME280;26708;50.304;19.028;2023-02-13T11:17:05;100113.75;;;6.91;66.96
40982;BME280;26708;50.304;19.028;2023-02-13T11:19:25;100164.19;;;7.16;66.63
40982;BME280;26708;50.304;19.028;2023-02-13T11:21:34;100205.22;;;7.47;66.86
40982;BME280;26708;50.304;19.028;2023-02-13T11:23:43;100139.66;;;7.10;66.82
40982;BME280;26708;50.304;19.028;2023-02-13T11:25:59;100208.81;;;7.49;66.69
40982;BME280;26708;50.304;19.028;2023-02-13T11:28:09;100202.75;;;7.50;66.50
40982;BME280;26708;50.304;19.028;2023-02-13T11:30:32;100205.38;;;7.50;66.69